createdAt,value
2022-12-31T00:00:10.361Z,6.41
2022-12-31T00:02:37.268Z,6.39
2022-12-31T00:05:04.618Z,6.41
2022-12-31T00:09:57.801Z,6.45
2022-12-31T00:12:25.511Z,6.46
2022-12-31T00:14:52.308Z,6.46
2022-12-31T00:17:19.174Z,6.46
2022-12-31T00:19:45.903Z,6.47
2022-12-31T00:22:12.644Z,6.49
2022-12-31T00:24:39.466Z,6.49
2022-12-31T00:27:06.159Z,6.51
2022-12-31T00:30:16.288Z,6.53
2022-12-31T00:36:26.481Z,6.57
2022-12-31T00:38:55.424Z,6.58
2022-12-31T00:41:22.928Z,6.61
2022-12-31T00:43:50.393Z,6.63
2022-12-31T00:46:18.075Z,6.64
2022-12-31T00:48:45.326Z,6.65
2022-12-31T00:51:29.180Z,6.67
2022-12-31T00:53:57.327Z,6.69
2022-12-31T00:56:26.957Z,6.70
2022-12-31T00:58:54.427Z,6.70
2022-12-31T01:01:27.790Z,6.70
2022-12-31T01:03:58.791Z,6.72
2022-12-31T01:06:26.212Z,6.73
2022-12-31T01:08:55.282Z,6.72
2022-12-31T01:11:23.412Z,6.75
2022-12-31T01:13:54.362Z,6.77
2022-12-31T01:16:34.963Z,6.78
2022-12-31T01:19:06.064Z,6.79
2022-12-31T01:21:35.115Z,6.78
2022-12-31T01:24:02.110Z,6.80
2022-12-31T01:26:29.062Z,6.79
2022-12-31T01:28:55.863Z,6.80
2022-12-31T01:31:35.734Z,6.79
2022-12-31T01:34:22.790Z,6.78
2022-12-31T01:36:49.989Z,6.77
2022-12-31T01:39:22.008Z,6.78
2022-12-31T01:42:01.010Z,6.78
2022-12-31T01:44:27.672Z,6.77
2022-12-31T01:46:58.989Z,6.78
2022-12-31T01:49:40.920Z,6.77
2022-12-31T01:52:30.946Z,6.75
2022-12-31T01:55:15.174Z,6.74
2022-12-31T01:57:44.269Z,6.73
2022-12-31T02:00:11.715Z,6.72
2022-12-31T02:02:38.911Z,6.74
2022-12-31T02:05:28.026Z,6.72
2022-12-31T02:08:14.125Z,6.72
2022-12-31T02:10:40.938Z,6.71
2022-12-31T02:13:07.951Z,6.69
2022-12-31T02:16:05.192Z,6.69
2022-12-31T02:18:50.070Z,6.67
2022-12-31T02:21:42.324Z,6.67
2022-12-31T02:24:32.175Z,6.66
2022-12-31T02:27:01.988Z,6.64
2022-12-31T02:33:24.862Z,6.60
2022-12-31T02:40:20.052Z,6.56
2022-12-31T02:43:33.948Z,6.54
2022-12-31T02:46:43.893Z,6.51
2022-12-31T02:49:22.956Z,6.51
2022-12-31T02:52:25.316Z,6.50
2022-12-31T02:55:20.632Z,6.49
2022-12-31T02:58:21.533Z,6.49
2022-12-31T03:01:43.966Z,6.47
2022-12-31T03:04:36.396Z,6.47
2022-12-31T03:07:13.693Z,6.48
2022-12-31T03:09:41.943Z,6.46
2022-12-31T03:12:30.024Z,6.47
2022-12-31T03:15:22.387Z,6.46
2022-12-31T03:17:52.177Z,6.46
2022-12-31T03:27:35.629Z,6.43
2022-12-31T03:30:02.368Z,6.43
2022-12-31T03:32:29.171Z,6.41
2022-12-31T03:35:16.239Z,6.42
2022-12-31T03:37:43.643Z,6.43
2022-12-31T03:47:41.401Z,6.39
2022-12-31T03:50:46.955Z,6.39
2022-12-31T03:53:35.729Z,6.39
2022-12-31T03:56:24.983Z,6.37
2022-12-31T03:58:51.772Z,6.38
2022-12-31T04:01:19.447Z,6.39
2022-12-31T04:12:08.568Z,6.34
2022-12-31T04:14:50.598Z,6.33
2022-12-31T04:17:17.935Z,6.33
2022-12-31T04:27:50.198Z,6.33
2022-12-31T04:30:17.088Z,6.32
2022-12-31T04:32:44.117Z,6.33
2022-12-31T04:35:11.867Z,6.34
2022-12-31T04:38:21.637Z,6.33
2022-12-31T04:41:06.609Z,6.34
2022-12-31T04:43:33.282Z,6.33
2022-12-31T04:50:12.165Z,6.31
2022-12-31T04:53:03.269Z,6.31
2022-12-31T04:59:54.662Z,6.28
2022-12-31T05:02:21.590Z,6.29
2022-12-31T05:04:48.632Z,6.31
2022-12-31T05:07:19.706Z,6.32
2022-12-31T05:10:03.877Z,6.33
2022-12-31T05:12:30.717Z,6.33
2022-12-31T05:14:57.496Z,6.33
2022-12-31T05:17:24.268Z,6.33
2022-12-31T05:19:54.321Z,6.36
2022-12-31T05:23:17.438Z,6.38
2022-12-31T05:26:20.820Z,6.38
2022-12-31T05:28:47.529Z,6.38
2022-12-31T05:31:14.267Z,6.36
2022-12-31T05:38:26.125Z,6.38
2022-12-31T05:41:53.701Z,6.39
2022-12-31T05:48:01.050Z,6.39
2022-12-31T05:51:25.482Z,6.38
2022-12-31T05:53:59.679Z,6.38
2022-12-31T06:00:18.733Z,6.37
2022-12-31T06:03:17.807Z,6.38
2022-12-31T06:05:44.623Z,6.39
2022-12-31T06:08:12.497Z,6.38
2022-12-31T06:10:40.094Z,6.38
2022-12-31T06:13:07.170Z,6.38
2022-12-31T06:15:36.915Z,6.37
2022-12-31T06:18:03.729Z,6.38
2022-12-31T06:20:30.468Z,6.38
2022-12-31T06:22:57.276Z,6.39
2022-12-31T06:25:23.988Z,6.40
2022-12-31T06:27:55.112Z,6.40
2022-12-31T06:31:15.723Z,6.42
2022-12-31T06:33:42.797Z,6.44
2022-12-31T06:36:14.413Z,6.44
2022-12-31T06:38:42.459Z,6.44
2022-12-31T06:41:14.237Z,6.46
2022-12-31T06:43:42.423Z,6.48
2022-12-31T06:46:12.163Z,6.48
2022-12-31T06:48:39.632Z,6.49
2022-12-31T06:51:16.611Z,6.50
2022-12-31T06:53:45.166Z,6.48
2022-12-31T06:56:18.602Z,6.47
2022-12-31T06:58:46.378Z,6.48
2022-12-31T07:01:28.467Z,6.48
2022-12-31T07:08:16.477Z,6.48
2022-12-31T07:10:59.963Z,6.48
2022-12-31T07:13:38.643Z,6.48
2022-12-31T07:16:16.619Z,6.48
2022-12-31T07:19:57.819Z,6.47
2022-12-31T07:22:25.510Z,6.47
2022-12-31T07:24:52.667Z,6.48
2022-12-31T07:27:37.803Z,6.49
2022-12-31T07:30:09.814Z,6.50
2022-12-31T07:32:42.739Z,6.48
2022-12-31T07:35:35.279Z,6.48
2022-12-31T07:38:26.945Z,6.50
2022-12-31T07:41:31.234Z,6.49
2022-12-31T07:48:35.329Z,6.47
2022-12-31T07:51:02.258Z,6.48
2022-12-31T07:54:14.399Z,6.47
2022-12-31T07:56:48.195Z,6.48
2022-12-31T07:59:42.794Z,6.49
2022-12-31T08:02:14.060Z,6.48
2022-12-31T08:04:54.025Z,6.47
2022-12-31T08:07:58.181Z,6.44
2022-12-31T08:10:33.224Z,6.43
2022-12-31T08:13:06.510Z,6.42
2022-12-31T08:15:36.956Z,6.44
2022-12-31T08:22:41.645Z,6.43
2022-12-31T08:26:01.330Z,6.44
2022-12-31T08:28:33.771Z,6.41
2022-12-31T08:31:10.827Z,6.39
2022-12-31T08:45:31.527Z,6.40
2022-12-31T08:48:26.691Z,6.40
2022-12-31T08:51:20.703Z,6.38
2022-12-31T08:53:48.461Z,6.39
2022-12-31T09:04:08.817Z,6.41
2022-12-31T09:10:57.908Z,6.39
2022-12-31T09:13:30.360Z,6.39
2022-12-31T09:16:28.507Z,6.38
2022-12-31T09:18:55.276Z,6.40
2022-12-31T09:21:22.218Z,6.40
2022-12-31T09:23:49.806Z,6.41
2022-12-31T09:26:34.775Z,6.41
2022-12-31T09:29:22.720Z,6.41
2022-12-31T09:32:17.353Z,6.40
2022-12-31T09:34:58.570Z,6.38
2022-12-31T09:37:38.593Z,6.38
2022-12-31T09:40:40.202Z,6.38
2022-12-31T09:43:09.684Z,6.37
2022-12-31T09:46:09.650Z,6.36
2022-12-31T09:48:45.433Z,6.38
2022-12-31T09:51:56.415Z,6.40
2022-12-31T09:54:29.161Z,6.43
2022-12-31T09:56:59.283Z,6.46
2022-12-31T10:00:04.308Z,6.48
2022-12-31T10:02:55.352Z,6.52
2022-12-31T10:05:27.994Z,6.53
2022-12-31T10:08:20.998Z,6.55
2022-12-31T10:10:59.032Z,6.58
2022-12-31T10:13:28.624Z,6.60
2022-12-31T10:16:20.191Z,6.61
2022-12-31T10:19:15.125Z,6.64
2022-12-31T10:22:23.390Z,6.66
2022-12-31T10:25:14.708Z,6.67
2022-12-31T10:28:41.070Z,6.70
2022-12-31T10:31:33.719Z,6.74
2022-12-31T10:34:06.179Z,6.74
2022-12-31T10:36:47.729Z,6.78
2022-12-31T10:39:32.200Z,6.81
2022-12-31T10:41:58.811Z,6.83
2022-12-31T10:44:44.002Z,6.85
2022-12-31T10:47:42.828Z,6.89
2022-12-31T10:50:39.184Z,6.91
2022-12-31T10:53:18.323Z,6.94
2022-12-31T10:55:54.477Z,6.98
2022-12-31T10:58:52.784Z,7.02
2022-12-31T11:01:33.145Z,7.07
2022-12-31T11:04:35.395Z,7.09
2022-12-31T11:07:15.363Z,7.12
2022-12-31T11:10:21.907Z,7.16
2022-12-31T11:12:57.541Z,7.20
2022-12-31T11:16:01.328Z,7.22
2022-12-31T11:22:44.705Z,7.23
2022-12-31T11:25:11.405Z,7.22
2022-12-31T11:28:05.978Z,7.23
2022-12-31T11:31:01.832Z,7.26
2022-12-31T11:33:50.714Z,7.29
2022-12-31T11:36:32.011Z,7.31
2022-12-31T11:39:01.689Z,7.32
2022-12-31T11:41:54.478Z,7.35
2022-12-31T11:44:48.408Z,7.42
2022-12-31T11:47:33.580Z,7.45
2022-12-31T11:50:29.305Z,7.50
2022-12-31T11:53:36.341Z,7.54
2022-12-31T11:56:18.500Z,7.56
2022-12-31T11:58:54.938Z,7.58
2022-12-31T12:01:26.618Z,7.61
2022-12-31T12:03:53.539Z,7.62
2022-12-31T12:06:41.155Z,7.66
2022-12-31T12:09:17.011Z,7.69
2022-12-31T12:11:43.818Z,7.71
2022-12-31T12:14:35.955Z,7.74
2022-12-31T12:17:14.712Z,7.75
2022-12-31T12:19:56.942Z,7.75
2022-12-31T12:22:32.842Z,7.79
2022-12-31T12:25:22.584Z,7.83
2022-12-31T12:27:50.055Z,7.88
2022-12-31T12:30:27.071Z,7.92
2022-12-31T12:33:04.811Z,7.96
2022-12-31T12:35:36.122Z,8.02
2022-12-31T12:38:13.812Z,8.05
2022-12-31T12:40:52.546Z,8.08
2022-12-31T12:43:39.567Z,8.11
2022-12-31T12:46:30.587Z,8.13
2022-12-31T12:48:58.466Z,8.13
2022-12-31T12:51:44.199Z,8.13
2022-12-31T12:54:20.177Z,8.13
2022-12-31T12:57:12.087Z,8.14
2022-12-31T13:00:00.592Z,8.14
2022-12-31T13:02:39.466Z,8.13
2022-12-31T13:05:46.495Z,8.13
2022-12-31T13:08:15.873Z,8.12
2022-12-31T13:11:06.343Z,8.14
2022-12-31T13:14:04.699Z,8.16
2022-12-31T13:16:42.870Z,8.19
2022-12-31T13:19:24.303Z,8.23
2022-12-31T13:22:34.714Z,8.25
2022-12-31T13:25:32.084Z,8.25
2022-12-31T13:31:40.461Z,8.32
2022-12-31T13:34:18.523Z,8.38
2022-12-31T13:36:48.795Z,8.41
2022-12-31T13:39:20.580Z,8.45
2022-12-31T13:42:01.250Z,8.51
2022-12-31T13:44:49.634Z,8.57
2022-12-31T13:47:22.516Z,8.59
2022-12-31T13:49:52.990Z,8.60
2022-12-31T13:52:42.241Z,8.59
2022-12-31T13:55:31.608Z,8.58
2022-12-31T13:58:05.052Z,8.58
2022-12-31T14:00:45.573Z,8.58
2022-12-31T14:03:43.923Z,8.62
2022-12-31T14:06:54.889Z,8.64
2022-12-31T14:09:28.798Z,8.65
2022-12-31T14:12:23.076Z,8.64
2022-12-31T14:14:59.019Z,8.62
2022-12-31T14:17:40.396Z,8.59
2022-12-31T14:20:49.221Z,8.58
2022-12-31T14:23:53.444Z,8.56
2022-12-31T14:26:43.480Z,8.54
2022-12-31T14:29:10.225Z,8.53
2022-12-31T14:31:49.377Z,8.52
2022-12-31T14:34:30.655Z,8.50
2022-12-31T14:37:04.102Z,8.50
2022-12-31T14:39:55.660Z,8.51
2022-12-31T14:42:33.965Z,8.52
2022-12-31T14:45:18.604Z,8.54
2022-12-31T14:48:11.459Z,8.55
2022-12-31T14:50:38.811Z,8.55
2022-12-31T14:53:08.650Z,8.54
2022-12-31T14:55:41.021Z,8.53
2022-12-31T14:58:30.200Z,8.52
2022-12-31T15:01:00.021Z,8.49
2022-12-31T15:03:44.719Z,8.50
2022-12-31T15:06:18.365Z,8.51
2022-12-31T15:09:12.116Z,8.48
2022-12-31T15:12:05.238Z,8.47
2022-12-31T15:14:58.073Z,8.44
2022-12-31T15:17:36.934Z,8.44
2022-12-31T15:20:41.158Z,8.45
2022-12-31T15:23:23.568Z,8.46
2022-12-31T15:26:00.642Z,8.47
2022-12-31T15:28:39.663Z,8.48
2022-12-31T15:31:18.822Z,8.48
2022-12-31T15:34:06.705Z,8.48
2022-12-31T15:36:39.549Z,8.46
2022-12-31T15:39:40.783Z,8.43
2022-12-31T15:42:47.259Z,8.37
2022-12-31T15:45:26.196Z,8.34
2022-12-31T15:47:58.914Z,8.29
2022-12-31T15:50:26.298Z,8.28
2022-12-31T15:53:26.904Z,8.27
2022-12-31T15:56:49.196Z,8.28
2022-12-31T15:59:18.484Z,8.29
2022-12-31T16:01:46.901Z,8.29
2022-12-31T16:04:29.438Z,8.30
2022-12-31T16:07:01.497Z,8.32
2022-12-31T16:10:13.256Z,8.32
2022-12-31T16:12:44.586Z,8.31
2022-12-31T16:15:24.634Z,8.32
2022-12-31T16:18:03.540Z,8.29
2022-12-31T16:20:33.753Z,8.26
2022-12-31T16:23:03.456Z,8.22
2022-12-31T16:25:33.387Z,8.18
2022-12-31T16:28:02.736Z,8.13
2022-12-31T16:30:32.207Z,8.12
2022-12-31T16:33:15.566Z,8.07
2022-12-31T16:35:42.950Z,8.03
2022-12-31T16:38:19.053Z,7.98
2022-12-31T16:41:00.932Z,7.95
2022-12-31T16:43:37.422Z,7.91
2022-12-31T16:46:44.217Z,7.88
2022-12-31T16:49:21.320Z,7.88
2022-12-31T16:51:49.733Z,7.86
2022-12-31T16:54:40.817Z,7.86
2022-12-31T16:57:10.992Z,7.86
2022-12-31T17:00:24.346Z,7.84
2022-12-31T17:03:09.657Z,7.85
2022-12-31T17:05:54.097Z,7.84
2022-12-31T17:08:51.435Z,7.84
2022-12-31T17:11:28.903Z,7.84
2022-12-31T17:14:00.853Z,7.83
2022-12-31T17:16:29.109Z,7.84
2022-12-31T17:18:56.014Z,7.86
2022-12-31T17:25:26.260Z,7.83
2022-12-31T17:28:00.430Z,7.83
2022-12-31T17:30:29.945Z,7.82
2022-12-31T17:33:03.905Z,7.81
2022-12-31T17:35:33.428Z,7.80
2022-12-31T17:38:27.974Z,7.81
2022-12-31T17:41:06.614Z,7.80
2022-12-31T17:43:36.379Z,7.80
2022-12-31T17:46:11.008Z,7.80
2022-12-31T17:48:37.901Z,7.78
2022-12-31T17:51:05.930Z,7.77
2022-12-31T17:53:32.677Z,7.75
2022-12-31T17:56:05.335Z,7.73
2022-12-31T17:58:41.160Z,7.70
2022-12-31T18:01:09.867Z,7.67
2022-12-31T18:03:38.719Z,7.65
2022-12-31T18:06:05.579Z,7.64
2022-12-31T18:08:32.392Z,7.64
2022-12-31T18:10:59.214Z,7.62
2022-12-31T18:13:27.732Z,7.60
2022-12-31T18:15:55.349Z,7.58
2022-12-31T18:18:29.096Z,7.56
2022-12-31T18:21:11.595Z,7.56
2022-12-31T18:23:40.466Z,7.53
2022-12-31T18:26:10.063Z,7.52
2022-12-31T18:28:36.800Z,7.49
2022-12-31T18:31:03.556Z,7.52
2022-12-31T18:33:30.589Z,7.54
2022-12-31T18:36:08.661Z,7.53
2022-12-31T18:38:35.820Z,7.54
2022-12-31T18:41:02.864Z,7.56
2022-12-31T18:43:29.586Z,7.60
2022-12-31T18:45:56.545Z,7.59
2022-12-31T18:48:23.345Z,7.59
2022-12-31T18:50:50.614Z,7.60
2022-12-31T18:53:23.530Z,7.59
2022-12-31T18:55:56.983Z,7.58
2022-12-31T18:58:24.489Z,7.60
2022-12-31T19:00:52.206Z,7.59
2022-12-31T19:03:22.454Z,7.59
2022-12-31T19:05:51.205Z,7.58
2022-12-31T19:08:19.978Z,7.58
2022-12-31T19:11:46.725Z,7.58
2022-12-31T19:14:20.545Z,7.55
2022-12-31T19:17:32.083Z,7.53
2022-12-31T19:20:04.318Z,7.50
2022-12-31T19:22:36.226Z,7.47
2022-12-31T19:25:06.054Z,7.46
2022-12-31T19:27:32.783Z,7.47
2022-12-31T19:30:00.729Z,7.45
2022-12-31T19:32:27.462Z,7.45
2022-12-31T19:34:54.229Z,7.45
2022-12-31T19:37:21.124Z,7.45
2022-12-31T19:39:48.353Z,7.45
2022-12-31T19:42:17.785Z,7.48
2022-12-31T19:44:44.633Z,7.49
2022-12-31T19:47:14.459Z,7.50
2022-12-31T19:49:41.225Z,7.51
2022-12-31T19:52:09.516Z,7.52
2022-12-31T19:54:36.594Z,7.52
2022-12-31T19:57:06.376Z,7.53
2022-12-31T19:59:33.115Z,7.55
2022-12-31T20:02:03.199Z,7.55
2022-12-31T20:04:30.177Z,7.56
2022-12-31T20:06:56.896Z,7.56
2022-12-31T20:09:23.646Z,7.55
2022-12-31T20:11:50.438Z,7.53
2022-12-31T20:14:17.288Z,7.51
2022-12-31T20:16:44.063Z,7.51
2022-12-31T20:19:11.045Z,7.49
2022-12-31T20:21:39.329Z,7.48
2022-12-31T20:24:06.506Z,7.44
2022-12-31T20:26:33.245Z,7.41
2022-12-31T20:29:00.090Z,7.38
2022-12-31T20:31:26.917Z,7.34
2022-12-31T20:33:54.402Z,7.30
2022-12-31T20:36:22.145Z,7.30
2022-12-31T20:38:51.840Z,7.28
2022-12-31T20:41:21.875Z,7.29
2022-12-31T20:43:49.168Z,7.29
2022-12-31T20:46:22.031Z,7.25
2022-12-31T20:48:51.269Z,7.26
2022-12-31T20:51:19.618Z,7.26
2022-12-31T20:53:57.716Z,7.24
2022-12-31T20:56:27.669Z,7.23
2022-12-31T20:58:54.785Z,7.24
2022-12-31T21:01:22.078Z,7.26
2022-12-31T21:04:06.296Z,7.27
2022-12-31T21:06:35.569Z,7.25
2022-12-31T21:09:07.057Z,7.24
2022-12-31T21:11:52.785Z,7.24
2022-12-31T21:14:20.134Z,7.21
2022-12-31T21:16:47.057Z,7.21
2022-12-31T21:19:13.814Z,7.20
2022-12-31T21:21:41.123Z,7.20
2022-12-31T21:24:08.355Z,7.21
2022-12-31T21:26:35.209Z,7.20
2022-12-31T21:29:02.233Z,7.19
2022-12-31T21:31:29.101Z,7.18
2022-12-31T21:33:55.873Z,7.18
2022-12-31T21:36:38.900Z,7.13
2022-12-31T21:39:05.667Z,7.13
2022-12-31T21:41:51.059Z,7.11
2022-12-31T21:44:21.744Z,7.09
2022-12-31T21:47:24.824Z,7.08
2022-12-31T21:49:36.405Z,7.05
2022-12-31T21:52:40.748Z,7.05
2022-12-31T21:55:26.513Z,7.03
2022-12-31T21:58:25.361Z,7.00
2022-12-31T22:00:59.060Z,7.00
2022-12-31T22:03:45.284Z,6.98
2022-12-31T22:06:20.708Z,6.99
2022-12-31T22:08:57.274Z,6.95
2022-12-31T22:11:27.259Z,6.91
2022-12-31T22:14:14.316Z,6.91
2022-12-31T22:16:41.293Z,6.89
2022-12-31T22:19:08.131Z,6.88
2022-12-31T22:21:35.955Z,6.87
2022-12-31T22:24:03.213Z,6.84
2022-12-31T22:26:29.953Z,6.82
2022-12-31T22:29:00.208Z,6.82
2022-12-31T22:31:33.348Z,6.81
2022-12-31T22:34:00.221Z,6.82
2022-12-31T22:36:27.048Z,6.83
2022-12-31T22:38:58.359Z,6.82
2022-12-31T22:41:26.526Z,6.81
2022-12-31T22:44:02.630Z,6.79
2022-12-31T22:46:30.916Z,6.79
2022-12-31T22:48:59.288Z,6.74
2022-12-31T22:51:54.946Z,6.73
2022-12-31T22:54:13.933Z,6.68
2022-12-31T22:56:40.992Z,6.67
2022-12-31T22:59:07.771Z,6.66
2022-12-31T23:01:56.176Z,6.64
2022-12-31T23:04:24.651Z,6.62
2022-12-31T23:07:26.478Z,6.61
2022-12-31T23:10:32.222Z,6.59
2022-12-31T23:12:59.100Z,6.59
2022-12-31T23:15:44.547Z,6.61
2022-12-31T23:18:29.797Z,6.61
2022-12-31T23:21:14.727Z,6.58
2022-12-31T23:23:41.483Z,6.61
2022-12-31T23:26:28.249Z,6.60
2022-12-31T23:28:54.969Z,6.61
2022-12-31T23:31:21.717Z,6.62
2022-12-31T23:33:48.433Z,6.63
2022-12-31T23:36:15.239Z,6.62
2022-12-31T23:38:42.005Z,6.63
2022-12-31T23:41:14.000Z,6.66
2022-12-31T23:43:40.742Z,6.64
2022-12-31T23:46:09.026Z,6.65
2022-12-31T23:48:35.806Z,6.65
2022-12-31T23:51:09.040Z,6.64
2022-12-31T23:53:38.568Z,6.65
2022-12-31T23:56:15.015Z,6.62
2022-12-31T23:58:47.937Z,6.61
